Time;durP1;ratioP1;P1;durP2;ratioP2;P2;SDS_P1;SDS_P2;PMS_P1;PMS_P2;Temp;Humidity;BMP_temperature;BMP_pressure;BME280_temperature;BME280_humidity;BME280_pressure;Samples;Min_cycle;Max_cycle;Signal;HPM_P1;HPM_P2
2022/04/16 00:01:09;;;;;;;8.32;5.22;;;;;;;-143.76;100.00;61248.72;5006259;28;20203;-73
2022/04/16 00:03:34;;;;;;;5.37;4.63;;;;;;;-143.76;100.00;61248.72;5006233;28;20657;-74
2022/04/16 00:06:00;;;;;;;5.37;3.90;;;;;;;-143.76;100.00;61248.72;5002112;28;20496;-73
2022/04/16 00:08:27;;;;;;;5.93;5.27;;;;;;;-143.76;100.00;61248.72;5005216;28;20221;-74
2022/04/16 00:10:54;;;;;;;9.05;4.85;;;;;;;-143.76;100.00;61248.72;5004415;28;20203;-73
2022/04/16 00:13:21;;;;;;;6.13;5.13;;;;;;;-143.76;100.00;61248.72;5000001;28;20640;-74
2022/04/16 00:15:46;;;;;;;4.63;3.95;;;;;;;-143.76;100.00;61248.72;4999465;28;20218;-74
2022/04/16 00:18:12;;;;;;;5.77;4.53;;;;;;;-143.76;100.00;61248.72;5004344;28;20195;-74
2022/04/16 00:20:40;;;;;;;7.63;4.88;;;;;;;-143.76;100.00;61248.72;5004534;28;20206;-75
2022/04/16 00:23:06;;;;;;;5.55;4.57;;;;;;;-143.76;100.00;61248.72;5005992;28;20218;-74
2022/04/16 00:25:33;;;;;;;4.90;4.40;;;;;;;-143.76;100.00;61248.72;5004653;28;20215;-74
2022/04/16 00:27:59;;;;;;;5.40;4.85;;;;;;;-143.76;100.00;61248.72;5005364;28;20194;-74
2022/04/16 00:30:24;;;;;;;5.32;4.38;;;;;;;-143.76;100.00;61248.72;5002750;28;20213;-73
2022/04/16 00:32:54;;;;;;;5.70;4.33;;;;;;;-143.76;100.00;61248.72;5006339;28;20199;-74
2022/04/16 00:35:20;;;;;;;4.80;3.75;;;;;;;-143.76;100.00;61248.72;5005975;28;20660;-73
2022/04/16 00:37:46;;;;;;;7.07;4.87;;;;;;;-143.76;100.00;61248.72;5003317;28;20218;-73
2022/04/16 00:40:12;;;;;;;5.25;4.68;;;;;;;-143.76;100.00;61248.72;4981500;28;20200;-74
2022/04/16 00:42:45;;;;;;;5.40;3.53;;;;;;;-143.76;100.00;61248.72;4987733;28;20203;-74
2022/04/16 00:45:12;;;;;;;4.32;3.92;;;;;;;-143.76;100.00;61248.72;5005763;28;20536;-74
2022/04/16 00:47:37;;;;;;;8.07;4.07;;;;;;;-143.76;100.00;61248.72;5003682;28;20230;-75
2022/04/16 00:50:04;;;;;;;4.53;3.90;;;;;;;-143.76;100.00;61248.72;5002880;28;21006;-74
2022/04/16 00:52:30;;;;;;;6.35;3.95;;;;;;;-143.76;100.00;61248.72;5003939;28;20695;-74
2022/04/16 00:54:56;;;;;;;4.47;4.03;;;;;;;-143.76;100.00;61248.72;5005357;28;20211;-74
2022/04/16 00:57:23;;;;;;;4.30;3.90;;;;;;;-143.76;100.00;61248.72;5002564;28;20784;-73
2022/04/16 00:59:52;;;;;;;7.80;3.80;;;;;;;-143.76;100.00;61248.72;5003966;28;20207;-74
2022/04/16 01:02:17;;;;;;;5.05;4.35;;;;;;;-143.76;100.00;61248.72;5002097;28;20623;-74
2022/04/16 01:04:43;;;;;;;6.17;3.90;;;;;;;-143.76;100.00;61248.72;5004581;28;20683;-75
2022/04/16 01:07:09;;;;;;;6.53;4.43;;;;;;;-143.76;100.00;61248.72;5003534;28;20734;-73
2022/04/16 01:09:35;;;;;;;6.60;4.40;;;;;;;-143.76;100.00;61248.72;5002871;28;20217;-75
2022/04/16 01:12:01;;;;;;;5.40;4.43;;;;;;;-143.76;100.00;61248.72;5005356;28;20663;-73
2022/04/16 01:14:28;;;;;;;9.40;4.20;;;;;;;-143.76;100.00;61248.72;5004494;28;20218;-73
2022/04/16 01:16:55;;;;;;;5.07;4.53;;;;;;;-143.76;100.00;61248.72;5003929;28;20462;-73
2022/04/16 01:19:21;;;;;;;6.22;4.20;;;;;;;-143.76;100.00;61248.72;5002618;28;20465;-73
2022/04/16 01:21:47;;;;;;;5.03;3.60;;;;;;;-143.76;100.00;61248.72;5000514;28;20682;-73
2022/04/16 01:24:14;;;;;;;6.27;3.90;;;;;;;-143.76;100.00;61248.72;4998268;28;20449;-73
2022/04/16 01:26:42;;;;;;;4.65;3.58;;;;;;;-143.76;100.00;61248.72;5000007;28;20230;-73
2022/04/16 01:29:09;;;;;;;5.45;3.58;;;;;;;-143.76;100.00;61248.72;4992790;28;20671;-73
2022/04/16 01:31:34;;;;;;;4.63;3.63;;;;;;;-143.76;100.00;61248.72;4999855;28;20501;-73
2022/04/16 01:34:01;;;;;;;3.97;3.57;;;;;;;-143.76;100.00;61248.72;5001736;28;20219;-73
2022/04/16 01:36:30;;;;;;;3.35;3.05;;;;;;;-143.76;100.00;61248.72;4991623;28;20314;-73
2022/04/16 01:38:56;;;;;;;5.68;3.88;;;;;;;-143.76;100.00;61248.72;4999140;28;20576;-72
2022/04/16 01:41:24;;;;;;;3.92;3.53;;;;;;;-143.76;100.00;61248.72;5001424;28;20215;-74
2022/04/16 01:43:49;;;;;;;4.47;3.30;;;;;;;-143.76;100.00;61248.72;5002780;28;20201;-73
2022/04/16 01:46:14;;;;;;;6.20;4.50;;;;;;;-143.76;100.00;61248.72;5003948;28;20227;-74
2022/04/16 01:48:40;;;;;;;4.10;3.60;;;;;;;-143.76;100.00;61248.72;5002575;28;20222;-73
2022/04/16 01:51:07;;;;;;;4.20;3.80;;;;;;;-143.76;100.00;61248.72;4984338;28;20876;-73
2022/04/16 01:53:32;;;;;;;4.85;3.58;;;;;;;-143.76;100.00;61248.72;5004345;28;20348;-73
2022/04/16 01:55:58;;;;;;;4.83;3.70;;;;;;;-143.76;100.00;61248.72;5003042;28;21061;-74
2022/04/16 01:58:23;;;;;;;3.20;2.90;;;;;;;-143.76;100.00;61248.72;5002477;28;20269;-73
2022/04/16 02:00:49;;;;;;;7.33;3.70;;;;;;;-143.76;100.00;61248.72;5002231;28;20273;-73
2022/04/16 02:03:14;;;;;;;4.40;3.20;;;;;;;-143.76;100.00;61248.72;5006847;28;20298;-72
2022/04/16 02:05:43;;;;;;;3.50;3.20;;;;;;;-143.76;100.00;61248.72;5005564;28;20238;-74
2022/04/16 02:08:08;;;;;;;5.50;4.03;;;;;;;-143.76;100.00;61248.72;5006865;28;20826;-74
2022/04/16 02:10:34;;;;;;;2.97;2.67;;;;;;;-143.76;100.00;61248.72;5006709;28;20667;-74
2022/04/16 02:13:00;;;;;;;4.63;4.23;;;;;;;-143.76;100.00;61248.72;5007198;28;20917;-74
2022/04/16 02:15:27;;;;;;;3.92;3.47;;;;;;;-143.76;100.00;61248.72;5007079;28;20273;-74
2022/04/16 02:17:54;;;;;;;3.50;3.20;;;;;;;-143.76;100.00;61248.72;5005442;28;20277;-75
2022/04/16 02:20:23;;;;;;;4.07;2.97;;;;;;;-143.76;100.00;61248.72;5001406;28;20205;-75
2022/04/16 02:22:49;;;;;;;5.85;3.85;;;;;;;-143.76;100.00;61248.72;5004982;28;20198;-75
2022/04/16 02:25:18;;;;;;;5.00;3.63;;;;;;;-143.76;100.00;61248.72;4992110;28;20218;-74
2022/04/16 02:27:44;;;;;;;4.03;3.20;;;;;;;-143.76;100.00;61248.72;5004842;28;20226;-75
2022/04/16 02:30:15;;;;;;;3.90;3.20;;;;;;;-143.76;100.00;61248.72;5006888;28;20210;-74
2022/04/16 02:32:43;;;;;;;3.80;3.40;;;;;;;-143.76;100.00;61248.72;5007919;28;20963;-74
2022/04/16 02:35:13;;;;;;;6.22;3.83;;;;;;;-143.76;100.00;61248.72;5004843;28;20209;-74
2022/04/16 02:37:39;;;;;;;4.10;3.60;;;;;;;;;;5005940;28;20743;-75
2022/04/16 02:40:05;;;;;;;4.10;3.43;;;;;;;9.13;nan;100292.41;5007988;28;20199;-74
2022/04/16 02:42:33;;;;;;;3.25;2.85;;;;;;;9.05;nan;100286.69;5004988;28;20294;-74
2022/04/16 02:47:42;;;;;;;3.75;2.85;;;;;;;8.96;nan;100294.94;5006352;28;20699;-74
2022/04/16 02:50:08;;;;;;;2.87;2.57;;;;;;;8.93;nan;100295.09;5004965;28;20210;-74
2022/04/16 02:52:34;;;;;;;3.90;3.33;;;;;;;8.87;nan;100298.84;5006783;28;20213;-74
2022/04/16 02:55:01;;;;;;;3.85;2.97;;;;;;;8.85;nan;100295.44;5006287;28;20199;-75
2022/04/16 02:57:26;;;;;;;3.60;3.30;;;;;;;8.83;nan;100302.50;5006781;28;20230;-76
2022/04/16 02:59:52;;;;;;;4.27;3.50;;;;;;;8.81;nan;100299.13;5006817;28;20199;-75
2022/04/16 03:02:18;;;;;;;4.37;3.97;;;;;;;8.79;nan;100290.47;5005003;28;20932;-75
2022/04/16 03:04:43;;;;;;;4.70;3.23;;;;;;;8.77;nan;100297.56;5008170;28;20199;-75
2022/04/16 03:07:09;;;;;;;5.07;3.40;;;;;;;8.75;nan;100295.03;5007245;28;20559;-75
2022/04/16 03:09:35;;;;;;;4.27;3.57;;;;;;;8.74;nan;100289.84;5009062;28;20221;-75
2022/04/16 03:12:01;;;;;;;4.00;3.30;;;;;;;8.71;nan;100293.44;5008663;28;20195;-76
2022/04/16 03:19:55;;;;;;;4.45;3.92;;;;;;;8.55;nan;100301.13;5008367;28;20249;-75
2022/04/16 03:22:21;;;;;;;4.35;3.05;;;;;;;8.51;nan;100296.97;5006742;28;20642;-75
2022/04/16 03:24:46;;;;;;;5.87;4.10;;;;;;;8.47;nan;100298.00;4998473;28;20214;-75
2022/04/16 03:27:12;;;;;;;3.30;3.00;;;;;;;8.45;nan;100297.22;5003241;28;20215;-75
2022/04/16 03:29:37;;;;;;;3.23;2.93;;;;;;;8.40;nan;100301.81;5009897;28;20695;-75
2022/04/16 03:32:03;;;;;;;4.83;3.60;;;;;;;8.38;nan;100301.00;4986552;28;20491;-75
2022/04/16 03:34:29;;;;;;;3.67;3.38;;;;;;;8.35;nan;100283.66;5010371;28;20195;-75
2022/04/16 03:36:55;;;;;;;3.03;2.73;;;;;;;8.32;nan;100290.81;5007602;28;20227;-75
2022/04/16 03:39:21;;;;;;;3.40;3.10;;;;;;;8.30;nan;100290.00;5008656;28;20854;-75
2022/04/16 03:41:47;;;;;;;4.15;3.00;;;;;;;8.29;nan;100293.53;5009264;28;20230;-74
2022/04/16 03:44:13;;;;;;;4.40;3.73;;;;;;;8.27;nan;100290.16;5007277;28;20379;-75
2022/04/16 03:46:38;;;;;;;3.30;2.60;;;;;;;8.22;nan;100289.50;5006827;28;20296;-75
2022/04/16 03:49:03;;;;;;;4.07;3.60;;;;;;;8.16;nan;100286.22;5006770;28;20218;-74
2022/04/16 03:51:29;;;;;;;3.80;3.37;;;;;;;8.13;nan;100285.50;5006496;28;20198;-74
2022/04/16 03:53:55;;;;;;;5.23;3.10;;;;;;;8.13;nan;100293.34;5004320;28;20644;-75
2022/04/16 04:01:49;;;;;;;4.18;3.25;;;;;;;8.07;nan;100297.06;5007264;28;20203;-75
2022/04/16 04:04:14;;;;;;;3.23;2.93;;;;;;;8.04;nan;100310.28;5008113;28;20249;-75
2022/04/16 04:06:40;;;;;;;4.33;3.00;;;;;;;8.02;nan;100314.75;5008365;28;20238;-74
2022/04/16 04:09:06;;;;;;;3.77;3.00;;;;;;;8.00;nan;100316.56;5008008;28;20290;-75
2022/04/16 04:11:32;;;;;;;5.18;3.22;;;;;;;7.96;nan;100330.66;5005902;28;20294;-75
2022/04/16 04:13:57;;;;;;;3.20;2.90;;;;;;;7.91;nan;100319.53;5006322;28;20298;-76
2022/04/16 04:16:23;;;;;;;3.90;3.50;;;;;;;7.89;nan;100324.84;5007912;28;20211;-74
2022/04/16 04:18:48;;;;;;;4.13;3.40;;;;;;;7.87;nan;100315.38;5007166;28;20221;-74
2022/04/16 04:21:14;;;;;;;4.00;2.80;;;;;;;7.83;nan;100327.72;5006677;28;20294;-75
2022/04/16 04:23:39;;;;;;;3.77;3.07;;;;;;;7.79;nan;100322.69;5006383;28;20202;-75
2022/04/16 04:26:04;;;;;;;3.80;3.23;;;;;;;7.76;nan;100327.09;5005885;28;20223;-76
2022/04/16 04:28:30;;;;;;;3.20;2.90;;;;;;;7.74;nan;100323.69;5007997;28;20211;-75
2022/04/16 04:30:55;;;;;;;5.70;3.50;;;;;;;7.72;nan;100330.78;5006837;28;20219;-76
2022/04/16 04:33:21;;;;;;;4.57;3.90;;;;;;;7.72;nan;100330.78;5006297;28;20497;-75
2022/04/16 04:35:50;;;;;;;3.53;3.20;;;;;;;7.70;nan;100340.44;5008571;28;20198;-75
2022/04/16 04:38:15;;;;;;;4.55;3.05;;;;;;;7.66;nan;100340.63;5006612;28;20230;-75
2022/04/16 04:40:41;;;;;;;3.70;3.40;;;;;;;7.64;nan;100327.63;5002710;28;20199;-75
2022/04/16 04:43:06;;;;;;;3.53;3.23;;;;;;;7.63;nan;100338.97;5000956;28;20641;-75
2022/04/16 04:45:32;;;;;;;3.40;2.93;;;;;;;7.61;nan;100342.56;4984640;28;20231;-74
2022/04/16 04:47:57;;;;;;;4.00;3.00;;;;;;;7.60;nan;100348.72;4988866;28;20931;-75
2022/04/16 04:50:23;;;;;;;3.00;2.70;;;;;;;7.59;nan;100342.63;4979254;28;20238;-76
2022/04/16 04:52:48;;;;;;;4.80;3.67;;;;;;;7.60;nan;100339.09;5000616;28;20191;-75
2022/04/16 04:55:13;;;;;;;3.73;3.00;;;;;;;7.58;nan;100329.63;5000929;28;20579;-75
2022/04/16 04:57:40;;;;;;;3.90;3.20;;;;;;;7.56;nan;100342.75;5000358;28;20230;-76
2022/04/16 05:00:08;;;;;;;5.43;3.10;;;;;;;7.55;nan;100341.03;4999662;28;20651;-76
2022/04/16 05:02:47;;;;;;;4.15;3.00;;;;;;;7.66;nan;100338.00;4999771;28;20203;-76
2022/04/16 05:05:15;;;;;;;4.57;3.60;;;;;;;8.07;nan;100335.47;4997886;28;20318;-76
2022/04/16 05:07:40;;;;;;;4.82;3.30;;;;;;;8.58;nan;100328.94;4991839;28;20277;-76
2022/04/16 05:10:07;;;;;;;3.80;3.03;;;;;;;9.10;nan;100329.25;5008187;28;20203;-76
2022/04/16 05:12:32;;;;;;;3.95;2.95;;;;;;;9.59;nan;100323.47;5007436;28;20731;-76
2022/04/16 05:14:58;;;;;;;3.03;2.70;;;;;;;9.97;nan;100326.84;5004694;28;20298;-76
2022/04/16 05:17:23;;;;;;;3.70;3.30;;;;;;;10.39;nan;100329.09;4635620;28;10002529;-76
2022/04/16 05:19:49;;;;;;;2.67;2.43;;;;;;;10.75;nan;100332.53;5008823;28;20714;-76
2022/04/16 05:22:14;;;;;;;3.50;3.20;;;;;;;10.98;nan;100336.56;5003677;28;20213;-76
2022/04/16 05:24:40;;;;;;;3.00;2.47;;;;;;;11.18;nan;100328.44;5003845;28;20195;-75
2022/04/16 05:27:05;;;;;;;4.60;3.23;;;;;;;11.35;nan;100334.56;5004547;28;20249;-75
2022/04/16 05:29:48;;;;;;;4.30;2.97;;;;;;;11.47;nan;100337.34;5006384;28;20656;-75
2022/04/16 05:32:16;;;;;;;3.97;3.45;;;;;;;11.52;nan;100347.63;5005117;28;20459;-75
2022/04/16 05:34:42;;;;;;;4.53;2.95;;;;;;;11.44;nan;100355.09;5007032;28;20203;-75
2022/04/16 05:37:07;;;;;;;5.13;3.87;;;;;;;11.23;nan;100352.72;5005599;28;20219;-75
2022/04/16 05:39:33;;;;;;;4.87;3.90;;;;;;;10.95;nan;100349.88;5005677;28;20464;-76
2022/04/16 05:41:58;;;;;;;4.30;3.53;;;;;;;10.76;nan;100350.81;5006391;28;20226;-76
2022/04/16 05:44:24;;;;;;;4.60;3.93;;;;;;;10.60;nan;100360.44;5006613;28;20244;-76
2022/04/16 05:46:49;;;;;;;3.60;3.30;;;;;;;10.40;nan;100356.22;5007159;28;20298;-76
2022/04/16 05:49:14;;;;;;;4.30;3.53;;;;;;;10.13;nan;100361.91;5006717;28;20706;-75
2022/04/16 05:51:40;;;;;;;3.13;2.70;;;;;;;9.87;nan;100373.66;5006664;28;20203;-76
2022/04/16 05:54:05;;;;;;;3.17;2.87;;;;;;;9.65;nan;100373.00;5006414;28;21238;-76
2022/04/16 05:56:31;;;;;;;3.40;2.63;;;;;;;9.52;nan;100377.97;5005966;28;20226;-76
2022/04/16 05:58:59;;;;;;;3.63;3.27;;;;;;;9.44;nan;100382.72;4998527;28;20570;-75
2022/04/16 06:01:25;;;;;;;6.25;5.30;;;;;;;9.48;nan;100384.28;5007432;28;20490;-75
2022/04/16 06:03:50;;;;;;;4.30;3.90;;;;;;;9.61;nan;100380.16;5006052;28;20209;-76
2022/04/16 06:06:16;;;;;;;6.40;3.47;;;;;;;9.78;nan;100375.91;5007056;28;20310;-75
2022/04/16 06:08:41;;;;;;;3.97;2.87;;;;;;;10.26;nan;100371.78;5006730;28;20561;-75
2022/04/16 06:11:07;;;;;;;3.80;3.40;;;;;;;10.93;nan;100378.00;5006611;28;20234;-75
2022/04/16 06:13:32;;;;;;;3.93;3.53;;;;;;;11.61;nan;100375.19;5004039;28;20309;-75
2022/04/16 06:15:59;;;;;;;3.80;3.50;;;;;;;12.21;nan;100375.31;5007864;28;20502;-75
2022/04/16 06:18:25;;;;;;;4.72;3.75;;;;;;;12.73;nan;100372.22;5005336;28;20225;-76
2022/04/16 06:20:51;;;;;;;4.70;3.25;;;;;;;13.18;nan;100378.28;5004769;28;20428;-77
2022/04/16 06:23:20;;;;;;;3.80;2.90;;;;;;;13.63;nan;100378.13;4998622;28;20706;-76
2022/04/16 06:25:46;;;;;;;4.35;2.80;;;;;;;14.08;nan;100370.81;5002693;28;20307;-76
2022/04/16 06:28:11;;;;;;;4.33;3.17;;;;;;;14.48;nan;100357.56;5003764;28;20305;-76
2022/04/16 06:30:37;;;;;;;4.43;2.90;;;;;;;14.72;nan;100361.22;4999856;28;20266;-76
2022/04/16 06:33:02;;;;;;;3.40;3.10;;;;;;;14.93;nan;100363.31;4976645;28;20220;-76
2022/04/16 06:35:27;;;;;;;3.53;2.70;;;;;;;15.13;nan;100360.13;4996040;28;20226;-75
2022/04/16 06:37:53;;;;;;;4.60;3.37;;;;;;;15.33;nan;100358.69;4997902;28;20208;-76
2022/04/16 06:40:18;;;;;;;3.57;2.83;;;;;;;15.49;nan;100353.16;5004089;28;20299;-75
2022/04/16 06:42:44;;;;;;;3.50;3.20;;;;;;;15.57;nan;100366.69;4999639;28;20201;-76
2022/04/16 06:45:11;;;;;;;4.40;3.20;;;;;;;15.43;nan;100365.03;5005710;28;20825;-76
2022/04/16 06:47:37;;;;;;;3.50;3.25;;;;;;;14.95;nan;100364.06;5006017;28;20483;-76
2022/04/16 06:50:04;;;;;;;3.30;3.00;;;;;;;14.43;nan;100367.59;5007897;28;20195;-76
2022/04/16 06:52:30;;;;;;;3.83;3.42;;;;;;;13.93;nan;100365.59;5009288;28;20497;-75
2022/04/16 06:54:59;;;;;;;3.70;3.07;;;;;;;13.53;nan;100366.44;5004288;28;20215;-75
2022/04/16 06:57:25;;;;;;;3.20;3.00;;;;;;;13.17;nan;100370.44;5005458;28;20235;-76
2022/04/16 06:59:51;;;;;;;3.90;3.38;;;;;;;12.87;nan;100374.03;5004167;28;20225;-76
2022/04/16 07:02:17;;;;;;;3.53;3.07;;;;;;;12.70;nan;100379.47;5005799;28;20202;-75
2022/04/16 07:04:42;;;;;;;3.90;3.50;;;;;;;12.56;nan;100381.16;5004151;28;20976;-75
2022/04/16 07:07:10;;;;;;;3.53;2.90;;;;;;;12.50;nan;100388.56;5002903;28;20591;-76
2022/04/16 07:09:40;;;;;;;5.20;3.28;;;;;;;12.41;nan;100384.69;5004174;28;20289;-75
2022/04/16 07:12:10;;;;;;;3.60;3.30;;;;;;;12.34;nan;100378.94;5002900;28;20874;-76
2022/04/16 07:14:39;;;;;;;3.92;2.90;;;;;;;12.33;nan;100392.19;5003905;28;20208;-74
2022/04/16 07:17:05;;;;;;;6.05;4.60;;;;;;;12.36;nan;100386.72;5005036;28;20775;-76
2022/04/16 07:19:32;;;;;;;6.07;3.75;;;;;;;12.60;nan;100377.38;5003368;28;20203;-77
2022/04/16 07:21:57;;;;;;;3.30;3.00;;;;;;;13.14;nan;100376.75;5005488;28;20690;-76
2022/04/16 07:24:25;;;;;;;4.30;3.60;;;;;;;13.85;nan;100373.16;5004454;28;20203;-75
2022/04/16 07:26:54;;;;;;;4.20;3.25;;;;;;;14.65;nan;100367.03;5005469;28;20713;-75
2022/04/16 07:29:26;;;;;;;5.10;4.10;;;;;;;15.46;nan;100364.81;5006383;28;20190;-75
2022/04/16 07:31:52;;;;;;;4.60;3.42;;;;;;;16.11;nan;100376.84;5004078;28;20982;-75
2022/04/16 07:34:18;;;;;;;2.88;2.35;;;;;;;16.11;nan;100368.91;5004020;28;20498;-75
2022/04/16 07:36:45;;;;;;;3.73;2.80;;;;;;;16.17;nan;100362.28;5006038;28;20227;-75
2022/04/16 07:39:12;;;;;;;4.13;3.13;;;;;;;16.20;nan;100379.78;4987581;28;20450;-75
2022/04/16 07:41:38;;;;;;;4.35;2.72;;;;;;;16.42;nan;100379.88;5006221;28;20468;-75
2022/04/16 07:44:04;;;;;;;7.20;3.50;;;;;;;16.60;nan;100383.75;5007650;28;20220;-74
2022/04/16 07:46:30;;;;;;;2.70;2.17;;;;;;;16.72;nan;100375.84;5006981;28;20472;-75
2022/04/16 07:48:57;;;;;;;4.03;2.67;;;;;;;16.58;nan;100379.56;5009100;28;20965;-75
2022/04/16 07:51:23;;;;;;;3.23;2.70;;;;;;;16.85;nan;100383.72;5008328;28;20270;-75
2022/04/16 07:53:49;;;;;;;3.83;2.60;;;;;;;17.19;nan;100379.28;5008941;28;20456;-75
2022/04/16 07:56:14;;;;;;;2.40;2.20;;;;;;;17.43;nan;100377.31;5009971;28;20465;-75
2022/04/16 07:58:40;;;;;;;3.03;2.10;;;;;;;17.26;nan;100375.19;5009156;28;20220;-75
2022/04/16 08:01:05;;;;;;;3.57;2.60;;;;;;;17.28;nan;100381.19;4984161;28;20281;-75
2022/04/16 08:03:31;;;;;;;2.03;1.77;;;;;;;17.45;nan;100386.00;5008742;28;20226;-75
2022/04/16 08:05:56;;;;;;;2.73;2.33;;;;;;;17.75;nan;100375.69;5008596;28;20264;-76
2022/04/16 08:08:22;;;;;;;2.60;2.27;;;;;;;17.72;nan;100391.91;4995016;23;20224;-75
2022/04/16 08:10:51;;;;;;;2.00;1.80;;;;;;;17.80;nan;100382.34;4962527;28;20541;-75
2022/04/16 08:13:18;;;;;;;2.00;1.80;;;;;;;18.04;nan;100389.28;4965651;28;20212;-75
2022/04/16 08:15:47;;;;;;;2.70;2.50;;;;;;;18.34;nan;100385.91;4966175;28;20469;-75
2022/04/16 08:18:13;;;;;;;3.43;2.13;;;;;;;18.66;nan;100384.97;4956903;28;20680;-74
2022/04/16 08:20:39;;;;;;;2.83;2.00;;;;;;;18.87;nan;100385.00;4955502;28;20479;-74
2022/04/16 08:23:06;;;;;;;1.80;1.43;;;;;;;18.65;nan;100392.13;4938813;28;20479;-74
2022/04/16 08:28:04;;;;;;;2.20;2.00;;;;;;;18.04;nan;100387.47;4953898;28;20832;-75
2022/04/16 08:30:30;;;;;;;1.90;1.70;;;;;;;18.04;nan;100392.78;4958575;28;20530;-75
2022/04/16 08:32:56;;;;;;;2.53;2.10;;;;;;;18.22;nan;100390.41;4953450;28;20562;-76
2022/04/16 08:35:22;;;;;;;1.70;1.50;;;;;;;18.46;nan;100381.34;4953354;28;20211;-76
2022/04/16 08:37:48;;;;;;;1.90;1.80;;;;;;;18.74;nan;100387.81;4954818;28;20258;-76
2022/04/16 08:40:15;;;;;;;2.20;1.97;;;;;;;18.99;nan;100390.13;4957242;28;20515;-75
2022/04/16 08:42:44;;;;;;;1.73;1.60;;;;;;;18.87;nan;100390.31;4951525;28;20475;-75
2022/04/16 08:45:11;;;;;;;2.50;1.70;;;;;;;18.74;nan;100383.41;4951673;28;20936;-75
2022/04/16 08:47:38;;;;;;;2.53;1.47;;;;;;;18.67;nan;100387.53;4956901;28;20487;-75
2022/04/16 08:50:05;;;;;;;2.00;1.80;;;;;;;18.34;nan;100389.41;4953992;28;20479;-75
2022/04/16 08:52:33;;;;;;;1.50;1.40;;;;;;;18.07;nan;100389.03;4955577;28;20471;-75
2022/04/16 08:54:59;;;;;;;1.60;1.50;;;;;;;17.89;nan;100388.72;4956500;28;20719;-75
2022/04/16 08:57:25;;;;;;;1.90;1.50;;;;;;;17.52;nan;100394.31;4952329;28;20480;-76
2022/04/16 08:59:52;;;;;;;2.30;1.30;;;;;;;17.45;nan;100396.63;4953698;28;20826;-75
2022/04/16 09:02:22;;;;;;;2.17;1.30;;;;;;;17.45;nan;100396.63;4952649;28;20471;-76
2022/04/16 09:04:49;;;;;;;2.53;1.50;;;;;;;17.39;nan;100412.19;4951897;28;20945;-75
2022/04/16 09:07:15;;;;;;;1.57;1.40;;;;;;;17.13;nan;100411.63;4949689;28;20522;-76
2022/04/16 09:09:41;;;;;;;1.90;1.70;;;;;;;17.08;nan;100404.00;4950890;28;20458;-76
2022/04/16 09:12:20;;;;;;;1.40;1.30;;;;;;;17.31;nan;100410.19;4951717;28;20844;-75
2022/04/16 09:14:46;;;;;;;1.70;1.20;;;;;;;17.37;nan;100408.84;4959342;28;20455;-75
2022/04/16 09:17:16;;;;;;;4.17;2.07;;;;;;;17.33;nan;100413.53;4952253;28;20472;-76
2022/04/16 09:19:42;;;;;;;1.30;1.20;;;;;;;17.31;nan;100399.56;4952979;28;20466;-76
2022/04/16 09:22:10;;;;;;;1.93;1.30;;;;;;;17.49;nan;100399.88;4954750;28;20486;-75
2022/04/16 09:24:48;;;;;;;2.03;1.40;;;;;;;17.57;nan;100404.59;4954182;28;20204;-76
2022/04/16 09:27:15;;;;;;;1.97;1.23;;;;;;;17.55;nan;100410.03;4951673;28;20582;-75
2022/04/16 09:29:40;;;;;;;2.17;1.20;;;;;;;17.35;nan;100394.84;4953302;28;20467;-74
2022/04/16 09:32:06;;;;;;;2.03;1.50;;;;;;;17.08;nan;100403.16;4956050;28;20462;-75
2022/04/16 09:34:32;;;;;;;1.70;1.00;;;;;;;16.77;nan;100394.94;4956317;28;20197;-74
2022/04/16 09:36:58;;;;;;;4.10;1.33;;;;;;;16.88;nan;100402.06;4951085;28;20854;-74
2022/04/16 09:39:25;;;;;;;1.53;1.43;;;;;;;16.96;nan;100404.97;4937643;28;20577;-75
2022/04/16 09:41:51;;;;;;;1.67;1.20;;;;;;;16.96;nan;100404.97;4951856;28;20218;-75
2022/04/16 09:44:25;;;;;;;2.43;1.67;;;;;;;17.10;nan;100401.25;4953440;28;21038;-76
2022/04/16 09:46:52;;;;;;;1.60;1.30;;;;;;;17.34;nan;100403.78;4950678;28;20687;-74
2022/04/16 09:49:19;;;;;;;1.50;1.40;;;;;;;17.43;nan;100398.56;4957293;28;20457;-74
2022/04/16 09:51:46;;;;;;;1.57;1.20;;;;;;;17.53;nan;100395.19;4953760;28;20464;-74
2022/04/16 09:54:16;;;;;;;1.37;1.27;;;;;;;17.28;nan;100405.09;4952071;28;20296;-74
2022/04/16 09:56:46;;;;;;;1.20;1.10;;;;;;;17.08;nan;100403.16;4954621;28;20511;-74
2022/04/16 09:59:13;;;;;;;1.60;1.47;;;;;;;17.13;nan;100401.00;4953490;28;20499;-74
2022/04/16 10:01:47;;;;;;;1.45;1.30;;;;;;;17.50;nan;100396.28;4948660;28;21024;-75
2022/04/16 10:04:20;;;;;;;2.43;1.50;;;;;;;17.74;nan;100389.94;4950726;28;20204;-74
2022/04/16 10:06:49;;;;;;;2.23;1.50;;;;;;;17.63;nan;100398.78;4944304;28;21054;-74
2022/04/16 10:09:17;;;;;;;1.37;1.23;;;;;;;17.68;nan;100404.56;4951269;28;20486;-74
2022/04/16 10:14:44;;;;;;;1.20;1.00;;;;;;;17.71;nan;100391.03;4951007;28;20487;-75
2022/04/16 10:17:30;;;;;;;1.63;1.40;;;;;;;17.57;nan;100388.66;4954180;28;20479;-75
2022/04/16 10:20:07;;;;;;;1.70;1.20;;;;;;;17.81;nan;100388.50;4951263;28;20471;-75
2022/04/16 10:22:33;;;;;;;1.30;1.03;;;;;;;18.10;nan;100381.66;4950917;28;20469;-74
2022/04/16 10:24:59;;;;;;;1.73;1.30;;;;;;;18.08;nan;100388.91;4950298;28;20530;-75
2022/04/16 10:27:28;;;;;;;1.50;1.40;;;;;;;18.10;nan;100394.09;4948836;28;20957;-75
2022/04/16 10:29:59;;;;;;;1.33;1.23;;;;;;;18.07;nan;100386.38;4947047;28;20734;-73
2022/04/16 10:32:37;;;;;;;1.37;1.20;;;;;;;18.00;nan;100396.66;4948018;28;20505;-73
2022/04/16 10:35:04;;;;;;;1.70;1.40;;;;;;;17.84;nan;100391.75;4945406;28;20472;-74
2022/04/16 10:37:40;;;;;;;3.33;1.40;;;;;;;17.94;nan;100396.34;4954715;28;20487;-74
2022/04/16 10:40:22;;;;;;;1.20;1.10;;;;;;;18.07;nan;100392.53;4949379;28;20495;-72
2022/04/16 10:42:57;;;;;;;1.10;1.00;;;;;;;18.14;nan;100392.84;4956627;28;20583;-75
2022/04/16 10:45:23;;;;;;;1.30;0.97;;;;;;;18.20;nan;100386.19;4949196;28;20521;-75
2022/04/16 10:47:51;;;;;;;1.30;1.20;;;;;;;18.09;nan;100384.41;4935752;28;20660;-74
2022/04/16 10:50:18;;;;;;;1.00;0.90;;;;;;;18.05;nan;100383.00;4951169;28;20469;-75
2022/04/16 10:52:54;;;;;;;2.10;1.33;;;;;;;18.03;nan;100388.44;4935329;28;20450;-75
2022/04/16 10:55:30;;;;;;;2.20;1.40;;;;;;;17.92;nan;100388.47;4951207;28;20577;-75
2022/04/16 10:58:00;;;;;;;1.77;1.30;;;;;;;17.94;nan;100388.34;4952620;28;20536;-76
2022/04/16 11:00:45;;;;;;;1.30;1.10;;;;;;;17.86;nan;100395.13;4954509;28;20458;-75
2022/04/16 11:03:19;;;;;;;1.60;0.97;;;;;;;17.78;nan;100380.75;4957564;28;20522;-76
2022/04/16 11:05:45;;;;;;;1.50;1.10;;;;;;;17.73;nan;100390.91;4946027;28;20476;-75
2022/04/16 11:08:12;;;;;;;1.20;1.10;;;;;;;17.84;nan;100390.91;4948725;28;20570;-75
2022/04/16 11:10:38;;;;;;;2.10;1.30;;;;;;;18.01;nan;100386.88;4947029;28;20485;-76
2022/04/16 11:13:05;;;;;;;1.40;1.30;;;;;;;18.03;nan;100395.56;4938001;28;20528;-75
2022/04/16 11:15:30;;;;;;;1.47;1.10;;;;;;;17.97;nan;100385.44;4956258;28;20784;-76
2022/04/16 11:18:01;;;;;;;1.10;0.90;;;;;;;17.84;nan;100401.53;4953298;28;20486;-75
2022/04/16 11:20:27;;;;;;;1.10;1.00;;;;;;;17.72;nan;100391.91;4949350;28;20213;-75
2022/04/16 11:22:54;;;;;;;1.57;1.03;;;;;;;17.80;nan;100395.66;4948075;28;20550;-76
2022/04/16 11:25:23;;;;;;;1.37;1.20;;;;;;;17.89;nan;100405.50;4951679;28;20453;-75
2022/04/16 11:36:08;;;;;;;1.87;1.40;;;;;;;17.48;nan;100391.06;4955869;28;20464;-75
2022/04/16 11:38:36;;;;;;;1.77;0.93;;;;;;;17.49;nan;100391.91;4954824;28;20488;-75
2022/04/16 11:41:04;;;;;;;1.60;1.10;;;;;;;17.43;nan;100381.78;4955541;28;20741;-74
2022/04/16 11:43:30;;;;;;;1.10;1.00;;;;;;;17.42;nan;100380.94;4961124;28;20539;-74
2022/04/16 11:45:57;;;;;;;2.80;1.50;;;;;;;17.39;nan;100385.63;4957301;28;20487;-74
2022/04/16 11:48:23;;;;;;;2.80;1.03;;;;;;;17.38;nan;100381.31;4951491;28;20575;-75
2022/04/16 11:50:49;;;;;;;1.33;0.83;;;;;;;17.37;nan;100384.94;4955055;28;20521;-75
2022/04/16 11:53:15;;;;;;;1.20;1.10;;;;;;;17.41;nan;100387.22;4956852;28;20707;-77
2022/04/16 11:55:47;;;;;;;3.93;1.40;;;;;;;17.40;nan;100385.53;4954733;28;20464;-75
2022/04/16 11:58:13;;;;;;;2.83;1.67;;;;;;;17.24;nan;100369.13;4956494;28;20232;-76
2022/04/16 12:00:48;;;;;;;1.20;1.10;;;;;;;17.20;nan;100383.59;4952795;28;20479;-76
2022/04/16 12:03:14;;;;;;;1.93;1.60;;;;;;;17.21;nan;100390.63;4961910;28;20539;-75